createdAt,value
2023-01-02T00:00:41.592Z,98607.44
2023-01-02T00:03:09.715Z,98609.66
2023-01-02T00:05:38.133Z,98597.69
2023-01-02T00:08:06.490Z,98600.78
2023-01-02T00:10:34.471Z,98603.34
2023-01-02T00:13:03.844Z,98605.78
2023-01-02T00:15:32.826Z,98596.38
2023-01-02T00:18:00.913Z,98607.34
2023-01-02T00:20:28.908Z,98601.84
2023-01-02T00:22:57.212Z,98581.13
2023-01-02T00:25:25.407Z,98606.69
2023-01-02T00:27:55.878Z,98604.47
2023-01-02T00:30:25.237Z,98596.81
2023-01-02T00:32:53.305Z,98598.28
2023-01-02T00:35:21.292Z,98595.00
2023-01-02T00:37:52.660Z,98598.16
2023-01-02T00:40:23.052Z,98594.78
2023-01-02T00:42:51.141Z,98587.72
2023-01-02T00:45:19.324Z,98588.66
2023-01-02T00:47:49.091Z,98581.13
2023-01-02T00:50:17.186Z,98578.25
2023-01-02T00:52:45.196Z,98578.19
2023-01-02T00:55:13.243Z,98581.84
2023-01-02T00:57:41.323Z,98580.78
2023-01-02T01:00:09.895Z,98578.91
2023-01-02T01:02:38.026Z,98581.09
2023-01-02T01:05:08.500Z,98584.50
2023-01-02T01:07:36.559Z,98582.56
2023-01-02T01:10:04.824Z,98587.06
2023-01-02T01:12:32.881Z,98587.53
2023-01-02T01:15:00.918Z,98582.81
2023-01-02T01:17:28.941Z,98583.22
2023-01-02T01:19:56.905Z,98582.38
2023-01-02T01:22:26.590Z,98579.81
2023-01-02T01:24:54.636Z,98564.41
2023-01-02T01:27:22.790Z,98558.41
2023-01-02T01:29:51.257Z,98549.34
2023-01-02T01:32:19.309Z,98556.28
2023-01-02T01:34:47.638Z,98563.94
2023-01-02T01:37:15.657Z,98569.38
2023-01-02T01:39:45.005Z,98566.63
2023-01-02T01:42:13.701Z,98561.53
2023-01-02T01:44:42.666Z,98572.38
2023-01-02T01:47:16.969Z,98567.38
2023-01-02T01:49:45.760Z,98574.63
2023-01-02T01:52:16.065Z,98576.75
2023-01-02T01:54:47.812Z,98574.47
2023-01-02T01:57:17.759Z,98549.03
2023-01-02T01:59:46.312Z,98565.31
2023-01-02T02:02:14.856Z,98563.28
2023-01-02T02:04:43.838Z,98560.97
2023-01-02T02:07:12.470Z,98565.56
2023-01-02T02:09:45.427Z,98562.78
2023-01-02T02:12:19.001Z,98559.16
2023-01-02T02:14:48.751Z,98555.47
2023-01-02T02:17:22.683Z,98547.78
2023-01-02T02:20:04.226Z,98550.81
2023-01-02T02:22:53.720Z,98548.84
2023-01-02T02:25:45.836Z,98541.03
2023-01-02T02:28:31.535Z,98547.25
2023-01-02T02:31:04.564Z,98538.00
2023-01-02T02:33:39.870Z,98539.84
2023-01-02T02:36:12.285Z,98533.34
2023-01-02T02:38:52.199Z,98533.44
2023-01-02T02:41:26.468Z,98530.97
2023-01-02T02:44:01.358Z,98529.16
2023-01-02T02:46:33.419Z,98525.16
2023-01-02T02:49:08.829Z,98526.16
2023-01-02T02:51:39.368Z,98522.28
2023-01-02T02:54:10.503Z,98529.69
2023-01-02T02:56:38.990Z,98528.41
2023-01-02T02:59:07.179Z,98519.16
2023-01-02T03:01:36.918Z,98517.81
2023-01-02T03:04:10.017Z,98516.03
2023-01-02T03:06:46.470Z,98506.47
2023-01-02T03:09:19.388Z,98514.56
2023-01-02T03:11:55.130Z,98511.69
2023-01-02T03:14:31.070Z,98516.25
2023-01-02T03:17:02.906Z,98518.50
2023-01-02T03:19:36.665Z,98519.91
2023-01-02T03:22:07.578Z,98517.91
2023-01-02T03:24:36.769Z,98515.47
2023-01-02T03:27:07.531Z,98512.16
2023-01-02T03:29:40.321Z,98522.44
2023-01-02T03:32:12.485Z,98520.44
2023-01-02T03:34:42.235Z,98517.75
2023-01-02T03:37:12.628Z,98515.56
2023-01-02T03:39:44.037Z,98515.78
2023-01-02T03:42:13.710Z,98517.19
2023-01-02T03:44:45.277Z,98523.94
2023-01-02T03:47:22.169Z,98500.03
2023-01-02T03:49:53.265Z,98521.63
2023-01-02T03:52:26.148Z,98525.56
2023-01-02T03:54:54.709Z,98522.75
2023-01-02T03:57:27.237Z,98528.41
2023-01-02T03:59:58.525Z,98528.53
2023-01-02T04:02:32.967Z,98525.22
2023-01-02T04:05:05.676Z,98530.88
2023-01-02T04:07:35.665Z,98539.84
2023-01-02T04:10:05.197Z,98528.91
2023-01-02T04:12:34.651Z,98525.84
2023-01-02T04:15:04.624Z,98522.75
2023-01-02T04:17:37.910Z,98523.44
2023-01-02T04:20:10.855Z,98519.06
2023-01-02T04:22:42.589Z,98525.97
2023-01-02T04:25:13.575Z,98525.16
2023-01-02T04:27:44.020Z,98528.94
2023-01-02T04:30:12.429Z,98535.41
2023-01-02T04:32:42.590Z,98525.28
2023-01-02T04:35:11.807Z,98518.03
2023-01-02T04:37:41.454Z,98511.06
2023-01-02T04:40:12.126Z,98511.22
2023-01-02T04:42:40.354Z,98512.59
2023-01-02T04:45:08.965Z,98516.47
2023-01-02T04:47:37.062Z,98505.81
2023-01-02T04:50:09.728Z,98504.63
2023-01-02T04:52:37.882Z,98515.97
2023-01-02T04:55:08.171Z,98520.44
2023-01-02T04:57:36.439Z,98523.44
2023-01-02T05:00:05.373Z,98505.91
2023-01-02T05:02:35.351Z,98518.03
2023-01-02T05:05:03.407Z,98513.31
2023-01-02T05:07:33.614Z,98514.25
2023-01-02T05:10:03.771Z,98512.81
2023-01-02T05:15:19.876Z,98522.56
2023-01-02T05:17:47.859Z,98522.31
2023-01-02T05:20:15.930Z,98518.16
2023-01-02T05:23:02.727Z,98526.81
2023-01-02T05:25:32.871Z,98532.66
2023-01-02T05:28:03.545Z,98541.13
2023-01-02T05:30:31.662Z,98539.25
2023-01-02T05:32:59.697Z,98531.19
2023-01-02T05:35:32.386Z,98532.25
2023-01-02T05:38:03.018Z,98538.63
2023-01-02T05:40:31.123Z,98534.16
2023-01-02T05:42:59.932Z,98531.81
2023-01-02T05:45:30.555Z,98532.59
2023-01-02T05:47:58.604Z,98539.31
2023-01-02T05:50:26.597Z,98535.56
2023-01-02T05:52:56.122Z,98530.59
2023-01-02T05:55:25.454Z,98523.53
2023-01-02T05:57:55.093Z,98523.66
2023-01-02T06:00:25.747Z,98525.06
2023-01-02T06:02:54.577Z,98535.88
2023-01-02T06:05:22.772Z,98541.22
2023-01-02T06:07:50.818Z,98548.97
2023-01-02T06:10:18.819Z,98547.34
2023-01-02T06:12:48.825Z,98546.63
2023-01-02T06:15:16.906Z,98553.09
2023-01-02T06:17:44.875Z,98549.78
2023-01-02T06:20:12.843Z,98548.97
2023-01-02T06:22:43.220Z,98551.22
2023-01-02T06:25:11.275Z,98550.59
2023-01-02T06:27:39.307Z,98551.56
2023-01-02T06:30:09.746Z,98551.00
2023-01-02T06:32:37.727Z,98552.53
2023-01-02T06:35:06.577Z,98556.19
2023-01-02T06:37:34.706Z,98556.75
2023-01-02T06:40:02.727Z,98563.00
2023-01-02T06:42:31.397Z,98568.66
2023-01-02T06:45:01.034Z,98568.66
2023-01-02T06:47:30.395Z,98584.19
2023-01-02T06:49:58.473Z,98577.94
2023-01-02T06:52:28.867Z,98589.88
2023-01-02T06:54:56.972Z,98598.22
2023-01-02T06:57:25.009Z,98594.09
2023-01-02T06:59:53.044Z,98590.88
2023-01-02T07:02:21.223Z,98587.19
2023-01-02T07:04:50.662Z,98592.50
2023-01-02T07:07:18.650Z,98600.78
2023-01-02T07:09:46.652Z,98602.22
2023-01-02T07:12:14.677Z,98594.41
2023-01-02T07:14:42.641Z,98595.88
2023-01-02T07:17:10.699Z,98603.09
2023-01-02T07:19:38.759Z,98600.81
2023-01-02T07:22:08.073Z,98605.41
2023-01-02T07:24:38.873Z,98609.59
2023-01-02T07:27:06.962Z,98605.00
2023-01-02T07:29:34.909Z,98603.09
2023-01-02T07:32:03.031Z,98609.41
2023-01-02T07:34:31.088Z,98615.81
2023-01-02T07:36:59.138Z,98619.25
2023-01-02T07:39:28.473Z,98623.72
2023-01-02T07:41:56.474Z,98631.38
2023-01-02T07:44:24.559Z,98609.44
2023-01-02T07:46:52.577Z,98629.63
2023-01-02T07:49:20.570Z,98634.16
2023-01-02T07:51:48.572Z,98642.72
2023-01-02T07:54:18.796Z,98637.47
2023-01-02T07:56:48.147Z,98633.56
2023-01-02T07:59:16.179Z,98643.72
2023-01-02T08:01:44.341Z,98642.31
2023-01-02T08:04:12.610Z,98652.88
2023-01-02T08:06:41.452Z,98646.53
2023-01-02T08:09:09.566Z,98648.56
2023-01-02T08:11:37.612Z,98646.44
2023-01-02T08:14:07.025Z,98650.59
2023-01-02T08:16:35.064Z,98657.22
2023-01-02T08:19:03.201Z,98656.97
2023-01-02T08:21:31.268Z,98664.41
2023-01-02T08:23:59.343Z,98674.38
2023-01-02T08:26:27.411Z,98676.81
2023-01-02T08:28:55.449Z,98681.28
2023-01-02T08:31:24.934Z,98679.97
2023-01-02T08:33:53.028Z,98675.47
2023-01-02T08:36:23.331Z,98687.00
2023-01-02T08:38:51.307Z,98684.53
2023-01-02T08:41:31.057Z,98690.00
2023-01-02T08:43:59.106Z,98687.75
2023-01-02T08:46:28.949Z,98689.06
2023-01-02T08:48:57.035Z,98692.34
2023-01-02T08:51:26.168Z,98693.16
2023-01-02T08:53:54.322Z,98696.28
2023-01-02T08:56:23.441Z,98696.22
2023-01-02T08:58:52.782Z,98697.41
2023-01-02T09:01:21.875Z,98701.69
2023-01-02T09:03:52.096Z,98698.72
2023-01-02T09:06:22.356Z,98701.06
2023-01-02T09:08:52.152Z,98706.13
2023-01-02T09:11:21.978Z,98703.44
2023-01-02T09:13:50.048Z,98715.63
2023-01-02T09:16:18.213Z,98725.25
2023-01-02T09:18:46.298Z,98731.97
2023-01-02T09:21:16.222Z,98729.28
2023-01-02T09:23:44.315Z,98723.31
2023-01-02T09:26:12.914Z,98734.22
2023-01-02T09:28:40.982Z,98734.53
2023-01-02T09:31:12.338Z,98743.97
2023-01-02T09:33:44.409Z,98753.50
2023-01-02T09:36:13.377Z,98745.69
2023-01-02T09:38:45.318Z,98755.22
2023-01-02T09:41:22.980Z,98752.06
2023-01-02T09:43:53.152Z,98757.97
2023-01-02T09:46:26.340Z,98762.53
2023-01-02T09:48:54.408Z,98761.59
2023-01-02T09:51:22.555Z,98767.53
2023-01-02T09:53:51.904Z,98767.47
2023-01-02T09:56:23.031Z,98767.25
2023-01-02T09:58:56.265Z,98769.13
2023-01-02T10:01:28.656Z,98766.97
2023-01-02T10:04:06.036Z,98780.44
2023-01-02T10:06:38.809Z,98783.44
2023-01-02T10:09:10.388Z,98779.19
2023-01-02T10:11:44.126Z,98790.38
2023-01-02T10:14:19.159Z,98783.25
2023-01-02T10:16:50.766Z,98792.63
2023-01-02T10:19:21.823Z,98785.44
2023-01-02T10:21:52.157Z,98792.72
2023-01-02T10:24:26.235Z,98794.75
2023-01-02T10:26:54.760Z,98784.13
2023-01-02T10:29:28.279Z,98787.19
2023-01-02T10:31:58.907Z,98787.34
2023-01-02T10:34:32.143Z,98786.84
2023-01-02T10:37:04.495Z,98782.00
2023-01-02T10:39:37.306Z,98788.03
2023-01-02T10:42:06.755Z,98792.03
2023-01-02T10:44:35.574Z,98792.13
2023-01-02T10:47:12.926Z,98792.34
2023-01-02T10:49:41.635Z,98789.63
2023-01-02T10:52:14.441Z,98804.22
2023-01-02T10:54:56.698Z,98804.84
2023-01-02T10:57:34.138Z,98798.69
2023-01-02T11:00:04.070Z,98803.50
2023-01-02T11:02:33.026Z,98800.44
2023-01-02T11:05:03.154Z,98792.72
2023-01-02T11:07:33.552Z,98799.41
2023-01-02T11:10:06.080Z,98797.06
2023-01-02T11:12:47.299Z,98798.31
2023-01-02T11:15:16.028Z,98791.31
2023-01-02T11:17:45.202Z,98807.22
2023-01-02T11:20:22.669Z,98799.97
2023-01-02T11:22:50.832Z,98809.47
2023-01-02T11:25:22.445Z,98805.06
2023-01-02T11:27:53.887Z,98797.38
2023-01-02T11:30:28.933Z,98798.50
2023-01-02T11:33:08.099Z,98802.75
2023-01-02T11:35:40.420Z,98800.34
2023-01-02T11:38:17.461Z,98811.53
2023-01-02T11:40:54.154Z,98803.72
2023-01-02T11:43:41.942Z,98802.28
2023-01-02T11:46:15.986Z,98802.44
2023-01-02T11:48:44.161Z,98806.06
2023-01-02T11:51:17.704Z,98809.41
2023-01-02T11:53:47.458Z,98813.44
2023-01-02T11:56:18.692Z,98819.09
2023-01-02T11:58:50.234Z,98808.47
2023-01-02T12:01:22.558Z,98800.41
2023-01-02T12:03:51.054Z,98801.66
2023-01-02T12:06:20.285Z,98810.22
2023-01-02T12:08:57.853Z,98810.34
2023-01-02T12:11:33.991Z,98819.34
2023-01-02T12:14:02.461Z,98805.94
2023-01-02T12:16:36.992Z,98804.56
2023-01-02T12:19:16.293Z,98796.81
2023-01-02T12:21:49.339Z,98794.22
2023-01-02T12:24:28.157Z,98794.88
2023-01-02T12:27:01.756Z,98797.59
2023-01-02T12:29:46.237Z,98804.44
2023-01-02T12:32:41.165Z,98801.72
2023-01-02T12:35:18.807Z,98807.03
2023-01-02T12:37:48.831Z,98802.00
2023-01-02T12:40:24.036Z,98810.19
2023-01-02T12:43:01.650Z,98814.47
2023-01-02T12:45:34.817Z,98816.94
2023-01-02T12:48:09.820Z,98826.41
2023-01-02T12:50:49.251Z,98827.84
2023-01-02T12:53:27.197Z,98820.19
2023-01-02T12:56:05.243Z,98816.31
2023-01-02T12:58:43.712Z,98817.53
2023-01-02T13:01:18.483Z,98817.66
2023-01-02T13:03:53.287Z,98815.72
2023-01-02T13:06:45.278Z,98816.44
2023-01-02T13:09:20.090Z,98817.81
2023-01-02T13:11:53.857Z,98820.63
2023-01-02T13:14:25.497Z,98828.13
2023-01-02T13:16:58.521Z,98826.78
2023-01-02T13:19:33.435Z,98831.84
2023-01-02T13:22:09.605Z,98837.88
2023-01-02T13:24:37.956Z,98843.41
2023-01-02T13:27:06.146Z,98839.00
2023-01-02T13:29:42.697Z,98843.69
2023-01-02T13:32:12.038Z,98854.63
2023-01-02T13:34:47.643Z,98865.94
2023-01-02T13:37:18.435Z,98860.63
2023-01-02T13:39:48.171Z,98858.31
2023-01-02T13:42:42.428Z,98854.38
2023-01-02T13:45:14.494Z,98851.16
2023-01-02T13:47:48.176Z,98858.00
2023-01-02T13:50:20.071Z,98855.31
2023-01-02T13:52:57.630Z,98857.59
2023-01-02T13:55:31.496Z,98859.75
2023-01-02T13:58:18.633Z,98864.19
2023-01-02T14:00:54.419Z,98865.81
2023-01-02T14:03:41.462Z,98876.09
2023-01-02T14:06:24.836Z,98871.00
2023-01-02T14:09:07.793Z,98890.06
2023-01-02T14:11:56.335Z,98889.31
2023-01-02T14:14:34.702Z,98897.13
2023-01-02T14:17:10.780Z,98861.28
2023-01-02T14:19:39.495Z,98897.41
2023-01-02T14:22:12.823Z,98899.94
2023-01-02T14:24:42.376Z,98917.38
2023-01-02T14:27:19.160Z,98908.53
2023-01-02T14:29:52.788Z,98905.38
2023-01-02T14:32:25.008Z,98907.28
2023-01-02T14:34:55.509Z,98905.28
2023-01-02T14:37:30.838Z,98917.31
2023-01-02T14:40:10.019Z,98919.44
2023-01-02T14:43:08.308Z,98917.16
2023-01-02T14:45:41.581Z,98933.41
2023-01-02T14:48:15.514Z,98922.69
2023-01-02T14:50:45.017Z,98938.03
2023-01-02T14:53:15.747Z,98939.25
2023-01-02T14:55:44.304Z,98939.81
2023-01-02T14:58:16.993Z,98942.06
2023-01-02T15:00:47.603Z,98941.00
2023-01-02T15:03:22.628Z,98943.97
2023-01-02T15:05:54.143Z,98948.56
2023-01-02T15:08:28.765Z,98949.03
2023-01-02T15:11:23.136Z,98947.84
2023-01-02T15:14:04.876Z,98928.28
2023-01-02T15:16:42.675Z,98948.84
2023-01-02T15:19:16.954Z,98945.81
2023-01-02T15:21:45.080Z,98945.50
2023-01-02T15:24:17.897Z,98941.94
2023-01-02T15:26:45.948Z,98942.03
2023-01-02T15:29:21.508Z,98937.28
2023-01-02T15:31:52.119Z,98933.63
2023-01-02T15:34:27.808Z,98937.44
2023-01-02T15:36:56.481Z,98932.03
2023-01-02T15:39:29.982Z,98945.13
2023-01-02T15:42:00.716Z,98932.09
2023-01-02T15:44:50.439Z,98928.59
2023-01-02T15:47:25.467Z,98932.56
2023-01-02T15:49:58.496Z,98950.56
2023-01-02T15:52:27.669Z,98946.41
2023-01-02T15:54:56.600Z,98948.75
2023-01-02T15:57:26.836Z,98945.81
2023-01-02T15:59:55.398Z,98958.13
2023-01-02T16:02:36.301Z,98965.03
2023-01-02T16:05:09.237Z,98973.41
2023-01-02T16:07:38.794Z,98974.28
2023-01-02T16:10:08.231Z,98991.84
2023-01-02T16:12:36.398Z,98971.78
2023-01-02T16:15:04.841Z,98980.28
2023-01-02T16:17:34.310Z,98979.13
2023-01-02T16:20:03.816Z,98985.88
2023-01-02T16:22:36.753Z,98992.97
2023-01-02T16:25:06.959Z,98986.31
2023-01-02T16:27:38.622Z,98993.31
2023-01-02T16:30:15.685Z,98994.78
2023-01-02T16:32:47.789Z,98995.50
2023-01-02T16:35:23.548Z,99003.63
2023-01-02T16:37:56.393Z,99009.63
2023-01-02T16:41:00.388Z,99020.28
2023-01-02T16:43:31.161Z,99038.19
2023-01-02T16:45:59.668Z,99035.72
2023-01-02T16:48:29.923Z,99041.13
2023-01-02T16:50:58.856Z,99049.97
2023-01-02T16:53:29.489Z,99053.41
2023-01-02T16:55:57.624Z,99036.69
2023-01-02T16:58:26.220Z,99056.66
2023-01-02T17:00:54.532Z,99063.44
2023-01-02T17:03:23.798Z,99071.47
2023-01-02T17:06:02.292Z,99078.69
2023-01-02T17:08:32.530Z,99086.63
2023-01-02T17:11:00.752Z,99093.03
2023-01-02T17:13:29.366Z,99096.41
2023-01-02T17:15:58.105Z,99103.88
2023-01-02T17:18:26.394Z,99118.41
2023-01-02T17:20:54.453Z,99125.69
2023-01-02T17:23:22.611Z,99141.88
2023-01-02T17:25:51.983Z,99153.22
2023-01-02T17:28:20.148Z,99161.19
2023-01-02T17:30:49.956Z,99156.72
2023-01-02T17:33:20.394Z,99163.84
2023-01-02T17:35:49.280Z,99170.06
2023-01-02T17:38:17.691Z,99193.22
2023-01-02T17:40:45.753Z,99200.03
2023-01-02T17:43:17.495Z,99209.66
2023-01-02T17:45:45.657Z,99221.53
2023-01-02T17:48:17.322Z,99224.25
2023-01-02T17:50:51.516Z,99234.63
2023-01-02T17:53:19.895Z,99229.50
2023-01-02T17:55:51.467Z,99240.09
2023-01-02T17:58:42.101Z,99238.88
2023-01-02T18:01:14.069Z,99233.44
2023-01-02T18:03:42.299Z,99229.53
2023-01-02T18:06:11.395Z,99238.66
2023-01-02T18:08:39.449Z,99241.75
2023-01-02T18:11:08.220Z,99247.38
2023-01-02T18:13:40.944Z,99239.94
2023-01-02T18:16:15.123Z,99245.94
2023-01-02T18:18:43.770Z,99247.41
2023-01-02T18:21:12.764Z,99252.41
2023-01-02T18:23:41.121Z,99257.78
2023-01-02T18:26:11.568Z,99256.53
2023-01-02T18:28:41.364Z,99279.59
2023-01-02T18:31:15.338Z,99268.53
2023-01-02T18:33:43.545Z,99284.69
2023-01-02T18:36:17.991Z,99302.16
2023-01-02T18:38:46.134Z,99289.66
2023-01-02T18:41:18.995Z,99289.44
2023-01-02T18:43:49.540Z,99301.44
2023-01-02T18:46:19.945Z,99287.13
2023-01-02T18:48:48.305Z,99302.16
2023-01-02T18:51:17.923Z,99299.50
2023-01-02T18:53:47.547Z,99308.63
2023-01-02T18:56:17.752Z,99315.06
2023-01-02T18:58:51.476Z,99324.06
2023-01-02T19:01:23.633Z,99328.34
2023-01-02T19:03:56.601Z,99338.22
2023-01-02T19:06:25.962Z,99330.06
2023-01-02T19:09:02.769Z,99326.94
2023-01-02T19:11:51.034Z,99341.09
2023-01-02T19:14:20.336Z,99341.00
2023-01-02T19:16:50.301Z,99345.56
2023-01-02T19:19:21.745Z,99345.38
2023-01-02T19:21:50.997Z,99347.09
2023-01-02T19:24:19.989Z,99342.03
2023-01-02T19:26:48.801Z,99353.41
2023-01-02T19:29:19.460Z,99361.38
2023-01-02T19:31:51.372Z,99370.06
2023-01-02T19:34:31.092Z,99364.13
2023-01-02T19:37:08.343Z,99371.78
2023-01-02T19:39:38.261Z,99358.22
2023-01-02T19:42:21.304Z,99387.13
2023-01-02T19:44:50.413Z,99386.50
2023-01-02T19:47:20.517Z,99388.44
2023-01-02T19:49:49.033Z,99379.91
2023-01-02T19:52:19.368Z,99380.69
2023-01-02T19:54:49.039Z,99383.84
2023-01-02T19:57:17.748Z,99387.06
2023-01-02T19:59:48.974Z,99392.09
2023-01-02T20:02:18.636Z,99394.44
2023-01-02T20:04:49.642Z,99400.47
2023-01-02T20:07:17.913Z,99399.16
2023-01-02T20:09:46.032Z,99390.28
2023-01-02T20:12:34.474Z,99381.59
2023-01-02T20:15:06.196Z,99390.06
2023-01-02T20:17:35.018Z,99388.47
2023-01-02T20:20:07.448Z,99392.13
2023-01-02T20:22:36.100Z,99384.78
2023-01-02T20:25:04.723Z,99391.56
2023-01-02T20:27:35.029Z,99397.78
2023-01-02T20:30:04.125Z,99400.09
2023-01-02T20:32:34.605Z,99405.88
2023-01-02T20:35:02.654Z,99408.91
2023-01-02T20:37:34.599Z,99406.31
2023-01-02T20:40:02.647Z,99407.16
2023-01-02T20:42:32.799Z,99411.47
2023-01-02T20:45:00.989Z,99421.28
2023-01-02T20:47:29.053Z,99421.97
2023-01-02T20:49:57.109Z,99418.16
2023-01-02T20:52:25.172Z,99415.06
2023-01-02T20:54:54.636Z,99406.78
2023-01-02T20:57:22.770Z,99420.59
2023-01-02T20:59:50.964Z,99425.53
2023-01-02T21:02:19.216Z,99427.03
2023-01-02T21:04:47.415Z,99441.88
2023-01-02T21:07:15.500Z,99444.31
2023-01-02T21:09:43.501Z,99459.16
2023-01-02T21:12:26.823Z,99452.38
2023-01-02T21:14:57.150Z,99455.78
2023-01-02T21:17:26.482Z,99458.94
2023-01-02T21:19:54.543Z,99470.97
2023-01-02T21:22:22.581Z,99480.34
2023-01-02T21:24:50.560Z,99474.50
2023-01-02T21:27:22.021Z,99476.09
2023-01-02T21:29:50.004Z,99481.56
2023-01-02T21:32:18.039Z,99497.13
2023-01-02T21:34:48.143Z,99500.84
2023-01-02T21:37:16.213Z,99510.19
2023-01-02T21:39:44.894Z,99510.34
2023-01-02T21:42:18.907Z,99502.16
2023-01-02T21:44:48.525Z,99502.47
2023-01-02T21:47:19.203Z,99492.03
2023-01-02T21:49:47.292Z,99487.53
2023-01-02T21:52:17.647Z,99496.53
2023-01-02T21:54:46.133Z,99495.81
2023-01-02T21:57:14.285Z,99493.97
2023-01-02T22:02:39.109Z,99487.94
2023-01-02T22:05:08.055Z,99488.44
2023-01-02T22:07:40.790Z,99491.13
2023-01-02T22:10:11.874Z,99501.78
2023-01-02T22:12:40.936Z,99497.34
2023-01-02T22:15:10.899Z,99492.75
2023-01-02T22:17:40.304Z,99504.69
2023-01-02T22:20:09.118Z,99513.75
2023-01-02T22:22:37.231Z,99511.31
2023-01-02T22:25:08.009Z,99522.81
2023-01-02T22:27:38.615Z,99537.88
2023-01-02T22:30:31.033Z,99542.06
2023-01-02T22:32:57.373Z,99542.56
2023-01-02T22:35:25.565Z,99533.00
2023-01-02T22:37:53.626Z,99535.75
2023-01-02T22:40:21.702Z,99546.06
2023-01-02T22:43:10.091Z,99542.34
2023-01-02T22:45:48.799Z,99541.16
2023-01-02T22:48:20.419Z,99546.25
2023-01-02T22:50:50.512Z,99556.00
2023-01-02T22:53:23.547Z,99554.19
2023-01-02T22:55:51.699Z,99550.53
2023-01-02T22:58:22.789Z,99540.31
2023-01-02T23:01:01.727Z,99525.63
2023-01-02T23:03:33.113Z,99535.75
2023-01-02T23:06:01.156Z,99529.03
2023-01-02T23:08:29.286Z,99538.06
2023-01-02T23:10:57.411Z,99556.59
2023-01-02T23:13:25.444Z,99564.94
2023-01-02T23:16:11.413Z,99553.50
2023-01-02T23:18:58.890Z,99556.19
2023-01-02T23:21:27.713Z,99565.06
2023-01-02T23:23:56.169Z,99562.94
2023-01-02T23:26:26.246Z,99571.34
2023-01-02T23:29:09.973Z,99571.47
2023-01-02T23:31:39.078Z,99568.94
2023-01-02T23:34:08.590Z,99570.13
2023-01-02T23:36:36.989Z,99579.84
2023-01-02T23:39:05.513Z,99577.47
2023-01-02T23:41:34.513Z,99584.81
2023-01-02T23:44:03.053Z,99585.81
2023-01-02T23:46:31.187Z,99595.41
2023-01-02T23:48:59.647Z,99586.75
2023-01-02T23:51:29.183Z,99585.44
2023-01-02T23:53:57.950Z,99577.50
2023-01-02T23:56:26.829Z,99576.75
2023-01-02T23:58:55.969Z,99587.88
